createdAt,value
2019-04-20T00:00:54.659Z,9.21
2019-04-20T00:01:58.197Z,9.24
2019-04-20T00:02:55.514Z,9.16
2019-04-20T00:03:53.655Z,9.09
2019-04-20T00:04:53.387Z,9.08
2019-04-20T00:05:53.281Z,8.60
2019-04-20T00:06:54.786Z,8.73
2019-04-20T00:07:54.087Z,8.89
2019-04-20T00:09:00.781Z,8.84
2019-04-20T00:09:59.004Z,8.81
2019-04-20T00:11:01.755Z,8.83
2019-04-20T00:12:01.547Z,8.83
2019-04-20T00:13:05.664Z,8.80
2019-04-20T00:14:02.026Z,8.65
2019-04-20T00:14:52.730Z,8.58
2019-04-20T00:15:53.672Z,8.57
2019-04-20T00:16:52.854Z,8.62
2019-04-20T00:17:57.139Z,8.60
2019-04-20T00:18:57.399Z,8.61
2019-04-20T00:19:56.094Z,8.49
2019-04-20T00:21:00.392Z,8.54
2019-04-20T00:21:59.863Z,8.50
2019-04-20T00:22:54.128Z,8.47
2019-04-20T00:23:53.563Z,8.52
2019-04-20T00:25:00.452Z,8.43
2019-04-20T00:26:04.468Z,8.18
2019-04-20T00:27:13.595Z,8.38
2019-04-20T00:28:12.991Z,8.09
2019-04-20T00:29:10.325Z,8.36
2019-04-20T00:30:04.279Z,8.21
2019-04-20T00:32:02.590Z,8.22
2019-04-20T00:33:01.768Z,8.37
2019-04-20T00:34:05.902Z,8.34
2019-04-20T00:34:53.990Z,8.26
2019-04-20T00:35:53.184Z,8.32
2019-04-20T00:36:54.032Z,8.35
2019-04-20T00:37:53.016Z,8.04
2019-04-20T00:38:56.537Z,8.15
2019-04-20T00:39:53.134Z,8.26
2019-04-20T00:40:59.329Z,8.25
2019-04-20T00:41:58.963Z,8.33
2019-04-20T00:42:55.661Z,8.26
2019-04-20T00:43:53.424Z,8.16
2019-04-20T00:45:01.779Z,8.13
2019-04-20T00:46:01.969Z,8.32
2019-04-20T00:47:04.487Z,8.17
2019-04-20T00:48:00.736Z,8.06
2019-04-20T00:49:00.834Z,8.02
2019-04-20T00:50:05.578Z,8.19
2019-04-20T00:51:09.544Z,8.26
2019-04-20T00:52:18.884Z,8.15
2019-04-20T00:53:07.703Z,8.03
2019-04-20T00:53:56.853Z,7.91
2019-04-20T00:54:53.925Z,7.91
2019-04-20T00:55:53.140Z,8.15
2019-04-20T00:57:06.274Z,7.96
2019-04-20T00:57:59.782Z,8.03
2019-04-20T00:59:09.183Z,8.04
2019-04-20T01:00:11.072Z,8.06
2019-04-20T01:01:12.818Z,8.11
2019-04-20T01:02:15.667Z,7.88
2019-04-20T01:03:09.624Z,8.08
2019-04-20T01:04:16.343Z,8.06
2019-04-20T01:05:04.587Z,8.01
2019-04-20T01:07:06.307Z,7.99
2019-04-20T01:07:57.017Z,8.07
2019-04-20T01:08:53.416Z,8.13
2019-04-20T01:09:54.195Z,7.89
2019-04-20T01:10:56.054Z,7.94
2019-04-20T01:11:54.463Z,7.73
2019-04-20T01:13:01.131Z,7.71
2019-04-20T01:13:58.477Z,7.89
2019-04-20T01:14:57.397Z,7.77
2019-04-20T01:15:58.808Z,7.98
2019-04-20T01:17:00.029Z,7.89
2019-04-20T01:17:53.391Z,8.17
2019-04-20T01:18:53.291Z,8.27
2019-04-20T01:19:54.084Z,8.18
2019-04-20T01:20:53.620Z,8.11
2019-04-20T01:22:00.045Z,8.14
2019-04-20T01:23:00.112Z,7.97
2019-04-20T01:23:58.373Z,7.67
2019-04-20T01:24:54.903Z,7.69
2019-04-20T01:25:58.288Z,8.08
2019-04-20T01:26:55.983Z,8.25
2019-04-20T01:28:08.113Z,8.02
2019-04-20T01:29:06.268Z,8.33
2019-04-20T01:30:03.385Z,8.15
2019-04-20T01:31:08.335Z,8.04
2019-04-20T01:32:06.142Z,7.85
2019-04-20T01:33:11.519Z,8.07
2019-04-20T01:34:03.063Z,8.26
2019-04-20T01:35:04.765Z,8.15
2019-04-20T01:36:08.759Z,8.20
2019-04-20T01:37:09.532Z,8.13
2019-04-20T01:38:06.890Z,8.04
2019-04-20T01:39:05.005Z,8.16
2019-04-20T01:39:57.647Z,8.02
2019-04-20T01:40:53.233Z,7.89
2019-04-20T01:41:54.032Z,7.70
2019-04-20T01:42:53.281Z,7.79
2019-04-20T01:43:52.812Z,7.71
2019-04-20T01:44:55.326Z,7.65
2019-04-20T01:46:00.206Z,7.62
2019-04-20T01:46:57.925Z,7.36
2019-04-20T01:47:54.449Z,7.45
2019-04-20T01:48:54.737Z,7.41
2019-04-20T01:49:57.478Z,7.34
2019-04-20T01:51:02.141Z,7.12
2019-04-20T01:52:03.974Z,7.11
2019-04-20T01:53:03.450Z,7.05
2019-04-20T01:54:06.723Z,6.96
2019-04-20T01:55:13.079Z,6.89
2019-04-20T01:56:08.722Z,6.82
2019-04-20T01:57:01.677Z,6.77
2019-04-20T01:58:11.634Z,6.69
2019-04-20T01:59:10.697Z,6.67
2019-04-20T02:00:00.575Z,6.65
2019-04-20T02:00:55.862Z,6.63
2019-04-20T02:01:59.426Z,6.61
2019-04-20T02:02:57.058Z,6.59
2019-04-20T02:03:56.781Z,6.54
2019-04-20T02:04:55.399Z,6.34
2019-04-20T02:05:55.660Z,6.29
2019-04-20T02:06:57.878Z,6.49
2019-04-20T02:07:55.203Z,6.50
2019-04-20T02:08:57.321Z,6.47
2019-04-20T02:09:58.364Z,6.45
2019-04-20T02:10:59.226Z,6.34
2019-04-20T02:11:54.106Z,6.31
2019-04-20T02:12:57.696Z,6.26
2019-04-20T02:13:56.570Z,6.40
2019-04-20T02:14:57.591Z,6.34
2019-04-20T02:15:56.388Z,6.28
2019-04-20T02:17:03.197Z,6.29
2019-04-20T02:18:08.878Z,6.21
2019-04-20T02:19:09.333Z,6.22
2019-04-20T02:20:10.729Z,6.19
2019-04-20T02:21:05.229Z,6.16
2019-04-20T02:22:08.846Z,6.16
2019-04-20T02:23:07.404Z,6.15
2019-04-20T02:23:59.335Z,6.00
2019-04-20T02:24:53.526Z,6.03
2019-04-20T02:25:54.189Z,6.09
2019-04-20T02:26:53.627Z,6.08
2019-04-20T02:27:57.818Z,6.03
2019-04-20T02:29:19.059Z,5.88
2019-04-20T02:30:21.974Z,5.94
2019-04-20T02:33:34.424Z,5.84
2019-04-20T02:35:07.220Z,5.70
2019-04-20T02:36:29.929Z,5.89
2019-04-20T02:37:13.617Z,5.79
2019-04-20T02:38:42.607Z,5.81
2019-04-20T02:39:39.372Z,5.85
2019-04-20T02:40:27.058Z,5.92
2019-04-20T02:41:28.330Z,5.92
2019-04-20T02:43:25.101Z,6.01
2019-04-20T02:45:33.011Z,5.92
2019-04-20T02:46:28.553Z,5.91
2019-04-20T02:48:21.767Z,5.82
2019-04-20T02:51:13.347Z,5.75
2019-04-20T02:52:32.690Z,5.69
2019-04-20T02:53:33.017Z,5.71
2019-04-20T02:55:24.829Z,5.73
2019-04-20T02:56:12.923Z,5.76
2019-04-20T02:58:25.460Z,5.65
2019-04-20T03:00:20.955Z,5.59
2019-04-20T03:01:16.006Z,5.73
2019-04-20T03:02:04.135Z,5.74
2019-04-20T03:03:03.248Z,5.63
2019-04-20T03:03:58.282Z,5.52
2019-04-20T03:05:08.879Z,5.61
2019-04-20T03:06:08.573Z,5.64
2019-04-20T03:07:09.349Z,5.59
2019-04-20T03:08:10.031Z,5.89
2019-04-20T03:09:17.434Z,5.90
2019-04-20T03:10:15.591Z,5.96
2019-04-20T03:11:21.158Z,5.70
2019-04-20T03:12:18.596Z,5.91
2019-04-20T03:13:15.900Z,5.85
2019-04-20T03:14:10.887Z,5.83
2019-04-20T03:15:09.571Z,5.88
2019-04-20T03:16:15.446Z,5.61
2019-04-20T03:17:15.209Z,5.56
2019-04-20T03:18:18.079Z,5.61
2019-04-20T03:19:07.650Z,5.54
2019-04-20T03:20:12.024Z,5.61
2019-04-20T03:21:12.862Z,5.69
2019-04-20T03:22:16.129Z,5.64
2019-04-20T03:24:22.008Z,5.63
2019-04-20T03:25:11.377Z,5.62
2019-04-20T03:26:05.403Z,5.63
2019-04-20T03:27:07.961Z,5.60
2019-04-20T03:28:15.489Z,5.65
2019-04-20T03:29:05.333Z,5.42
2019-04-20T03:30:40.597Z,5.49
2019-04-20T03:31:41.202Z,5.35
2019-04-20T03:32:40.384Z,5.55
2019-04-20T03:33:23.493Z,5.58
2019-04-20T03:36:12.503Z,5.47
2019-04-20T03:37:19.441Z,5.30
2019-04-20T03:38:14.249Z,5.37
2019-04-20T03:39:16.538Z,5.50
2019-04-20T03:40:07.108Z,5.32
2019-04-20T03:41:04.879Z,5.42
2019-04-20T03:41:56.670Z,5.35
2019-04-20T03:42:53.349Z,5.21
2019-04-20T03:44:00.300Z,5.27
2019-04-20T03:44:58.671Z,5.23
2019-04-20T03:45:59.564Z,5.05
2019-04-20T03:46:59.722Z,5.13
2019-04-20T03:48:03.135Z,5.06
2019-04-20T03:49:11.818Z,5.01
2019-04-20T03:50:07.644Z,5.01
2019-04-20T03:51:18.085Z,4.93
2019-04-20T03:52:09.603Z,4.93
2019-04-20T03:53:17.225Z,5.02
2019-04-20T03:54:08.504Z,4.96
2019-04-20T03:55:13.922Z,4.97
2019-04-20T03:56:10.024Z,4.78
2019-04-20T03:57:17.292Z,4.89
2019-04-20T03:58:10.754Z,4.70
2019-04-20T03:59:10.384Z,4.66
2019-04-20T04:00:04.712Z,4.72
2019-04-20T04:01:12.559Z,4.82
2019-04-20T04:02:14.625Z,4.67
2019-04-20T04:03:20.009Z,5.00
2019-04-20T04:04:18.686Z,5.00
2019-04-20T04:05:05.549Z,4.89
2019-04-20T04:06:05.423Z,4.92
2019-04-20T04:06:58.057Z,4.75
2019-04-20T04:08:07.506Z,4.67
2019-04-20T04:09:07.271Z,4.82
2019-04-20T04:10:04.598Z,4.59
2019-04-20T04:11:09.776Z,4.76
2019-04-20T04:12:06.629Z,4.66
2019-04-20T04:12:53.159Z,4.64
2019-04-20T04:13:54.278Z,4.65
2019-04-20T04:14:53.695Z,4.61
2019-04-20T04:16:02.617Z,4.24
2019-04-20T04:16:57.252Z,4.47
2019-04-20T04:17:59.897Z,4.50
2019-04-20T04:19:02.848Z,4.44
2019-04-20T04:20:00.788Z,4.45
2019-04-20T04:21:01.490Z,4.28
2019-04-20T04:23:10.407Z,4.36
2019-04-20T04:24:05.840Z,4.17
2019-04-20T04:25:09.253Z,4.20
2019-04-20T04:26:11.572Z,4.29
2019-04-20T04:27:05.674Z,4.24
2019-04-20T04:28:07.030Z,4.22
2019-04-20T04:29:12.657Z,4.19
2019-04-20T04:30:12.233Z,4.16
2019-04-20T04:31:09.521Z,4.16
2019-04-20T04:34:07.627Z,4.21
2019-04-20T04:36:10.063Z,4.23
2019-04-20T04:37:13.470Z,4.24
2019-04-20T04:38:09.536Z,4.22
2019-04-20T04:39:15.059Z,4.19
2019-04-20T04:40:20.547Z,4.19
2019-04-20T04:41:18.274Z,4.18
2019-04-20T04:43:17.089Z,4.17
2019-04-20T04:44:09.655Z,4.15
2019-04-20T04:45:00.806Z,4.01
2019-04-20T04:45:53.405Z,3.91
2019-04-20T04:46:56.691Z,4.02
2019-04-20T04:47:53.701Z,4.07
2019-04-20T04:48:58.334Z,4.17
2019-04-20T04:49:59.957Z,4.16
2019-04-20T04:51:00.809Z,4.25
2019-04-20T04:52:02.256Z,4.24
2019-04-20T04:53:02.793Z,4.30
2019-04-20T04:54:02.956Z,4.25
2019-04-20T04:55:04.639Z,4.22
2019-04-20T04:56:01.563Z,4.35
2019-04-20T04:56:52.941Z,4.34
2019-04-20T04:57:53.826Z,4.32
2019-04-20T04:58:53.838Z,4.29
2019-04-20T04:59:53.506Z,4.29
2019-04-20T05:01:01.353Z,4.15
2019-04-20T05:01:55.439Z,4.05
2019-04-20T05:02:58.539Z,4.33
2019-04-20T05:05:19.362Z,4.38
2019-04-20T05:06:13.361Z,4.26
2019-04-20T05:07:07.711Z,4.21
2019-04-20T05:08:04.542Z,4.32
2019-04-20T05:08:59.979Z,4.41
2019-04-20T05:09:53.340Z,4.48
2019-04-20T05:10:54.182Z,4.45
2019-04-20T05:12:01.979Z,4.58
2019-04-20T05:12:54.777Z,4.44
2019-04-20T05:14:03.200Z,4.34
2019-04-20T05:15:03.611Z,4.51
2019-04-20T05:16:10.979Z,4.67
2019-04-20T05:17:07.723Z,4.52
2019-04-20T05:18:07.164Z,4.68
2019-04-20T05:19:10.512Z,4.72
2019-04-20T05:20:13.432Z,4.70
2019-04-20T05:21:15.431Z,4.67
2019-04-20T05:22:15.937Z,4.79
2019-04-20T05:23:11.464Z,4.82
2019-04-20T05:24:09.965Z,4.81
2019-04-20T05:25:12.003Z,4.84
2019-04-20T05:26:16.907Z,4.84
2019-04-20T05:27:09.444Z,4.89
2019-04-20T05:28:06.942Z,4.91
2019-04-20T05:29:03.422Z,4.83
2019-04-20T05:29:53.464Z,4.99
2019-04-20T05:30:58.178Z,4.85
2019-04-20T05:32:01.091Z,4.90
2019-04-20T05:33:01.479Z,4.89
2019-04-20T05:34:11.734Z,5.09
2019-04-20T05:35:19.703Z,4.91
2019-04-20T05:36:14.708Z,5.10
2019-04-20T05:37:20.876Z,5.13
2019-04-20T05:39:22.425Z,5.05
2019-04-20T05:40:16.292Z,4.99
2019-04-20T05:41:12.814Z,5.17
2019-04-20T05:42:13.319Z,5.18
2019-04-20T05:43:12.755Z,5.20
2019-04-20T05:44:10.160Z,5.14
2019-04-20T05:45:11.610Z,5.30
2019-04-20T05:46:18.480Z,5.24
2019-04-20T05:48:12.519Z,5.37
2019-04-20T05:49:17.662Z,5.31
2019-04-20T05:50:01.270Z,5.31
2019-04-20T05:51:21.064Z,5.49
2019-04-20T05:52:24.030Z,5.56
2019-04-20T05:53:14.436Z,5.37
2019-04-20T05:54:15.568Z,5.56
2019-04-20T05:55:16.213Z,5.79
2019-04-20T05:56:02.639Z,5.86
2019-04-20T05:57:23.691Z,5.94
2019-04-20T05:58:17.950Z,6.03
2019-04-20T05:59:11.565Z,6.11
2019-04-20T06:00:13.944Z,6.22
2019-04-20T06:01:13.524Z,6.12
2019-04-20T06:02:09.670Z,6.14
2019-04-20T06:03:12.991Z,6.46
2019-04-20T06:04:10.100Z,6.56
2019-04-20T06:05:17.482Z,6.63
2019-04-20T06:06:14.721Z,6.64
2019-04-20T06:07:14.972Z,6.55
2019-04-20T06:08:20.446Z,6.85
2019-04-20T06:10:11.458Z,7.08
2019-04-20T06:11:13.354Z,7.16
2019-04-20T06:12:15.995Z,7.16
2019-04-20T06:13:14.085Z,7.25
2019-04-20T06:14:02.396Z,7.34
2019-04-20T06:15:09.428Z,7.55
2019-04-20T06:16:07.804Z,7.43
2019-04-20T06:17:11.167Z,7.54
2019-04-20T06:18:06.288Z,7.51
2019-04-20T06:19:20.159Z,7.65
2019-04-20T06:20:11.547Z,7.30
2019-04-20T06:21:22.497Z,7.35
2019-04-20T06:22:21.680Z,7.43
2019-04-20T06:23:18.858Z,7.27
2019-04-20T06:24:20.416Z,7.39
2019-04-20T06:25:33.511Z,7.63
2019-04-20T06:26:30.113Z,7.70
2019-04-20T06:28:14.869Z,7.92
2019-04-20T06:29:10.153Z,7.81
2019-04-20T06:30:10.914Z,7.93
2019-04-20T06:31:18.024Z,8.05
2019-04-20T06:32:11.016Z,8.16
2019-04-20T06:33:24.625Z,8.22
2019-04-20T06:34:27.997Z,8.11
2019-04-20T06:35:18.939Z,8.36
2019-04-20T06:36:21.852Z,8.38
2019-04-20T06:37:07.143Z,8.54
2019-04-20T06:39:13.362Z,8.31
2019-04-20T06:40:25.354Z,8.05
2019-04-20T06:41:21.583Z,8.02
2019-04-20T06:42:14.705Z,8.20
2019-04-20T06:43:07.847Z,8.02
2019-04-20T06:44:08.632Z,8.30
2019-04-20T06:45:25.003Z,8.01
2019-04-20T06:46:15.214Z,8.31
2019-04-20T06:47:21.266Z,8.79
2019-04-20T06:48:26.858Z,8.86
2019-04-20T06:49:22.438Z,8.89
2019-04-20T06:50:15.949Z,8.97
2019-04-20T06:51:10.806Z,9.01
2019-04-20T06:52:20.313Z,8.80
2019-04-20T06:53:20.929Z,8.70
2019-04-20T06:54:07.290Z,8.50
2019-04-20T06:55:08.769Z,8.79
2019-04-20T06:56:21.686Z,8.71
2019-04-20T06:58:31.870Z,8.70
2019-04-20T06:59:12.237Z,8.95
2019-04-20T07:00:15.705Z,8.76
2019-04-20T07:01:08.095Z,8.83
2019-04-20T07:03:17.780Z,9.55
2019-04-20T07:04:33.716Z,9.88
2019-04-20T07:05:17.437Z,9.93
2019-04-20T07:06:29.322Z,9.99
2019-04-20T07:08:29.135Z,10.28
2019-04-20T07:09:20.258Z,10.08
2019-04-20T07:10:18.297Z,10.14
2019-04-20T07:11:18.728Z,9.99
2019-04-20T07:12:06.440Z,10.32
2019-04-20T07:13:09.176Z,10.52
2019-04-20T07:14:00.969Z,10.26
2019-04-20T07:15:14.933Z,10.40
2019-04-20T07:16:18.492Z,10.53
2019-04-20T07:17:20.637Z,10.56
2019-04-20T07:18:09.200Z,10.39
2019-04-20T07:19:15.395Z,10.13
2019-04-20T07:20:04.207Z,10.40
2019-04-20T07:21:09.542Z,10.26
2019-04-20T07:22:25.103Z,10.49
2019-04-20T07:23:22.374Z,10.21
2019-04-20T07:24:20.058Z,10.44
2019-04-20T07:25:12.790Z,10.07
2019-04-20T07:27:13.652Z,10.05
2019-04-20T07:28:14.464Z,10.50
2019-04-20T07:29:11.813Z,10.30
2019-04-20T07:30:13.702Z,10.89
2019-04-20T07:31:07.662Z,10.94
2019-04-20T07:32:01.867Z,10.99
2019-04-20T07:33:20.028Z,10.63
2019-04-20T07:34:10.365Z,10.72
2019-04-20T07:35:08.749Z,10.86
2019-04-20T07:36:20.045Z,10.51
2019-04-20T07:37:35.145Z,10.72
2019-04-20T07:38:30.905Z,10.95
2019-04-20T07:39:07.888Z,11.26
2019-04-20T07:40:17.548Z,11.54
2019-04-20T07:41:23.627Z,11.78
2019-04-20T07:42:16.981Z,12.01
2019-04-20T07:43:08.157Z,12.18
2019-04-20T07:44:21.527Z,12.19
2019-04-20T07:46:23.135Z,12.30
2019-04-20T07:48:15.418Z,11.85
2019-04-20T07:49:15.976Z,12.05
2019-04-20T07:50:07.734Z,12.11
2019-04-20T07:51:04.835Z,12.15
2019-04-20T07:51:53.906Z,12.11
2019-04-20T07:53:10.877Z,12.21
2019-04-20T07:54:24.751Z,12.09
2019-04-20T07:56:12.487Z,12.09
2019-04-20T07:57:10.275Z,12.03
2019-04-20T07:58:08.291Z,12.30
2019-04-20T07:58:58.695Z,12.36
2019-04-20T08:00:17.549Z,12.48
2019-04-20T08:01:07.600Z,12.84
2019-04-20T08:02:30.763Z,12.31
2019-04-20T08:03:18.439Z,12.74
2019-04-20T08:04:15.723Z,12.72
2019-04-20T08:05:08.271Z,13.04
2019-04-20T08:06:06.914Z,12.88
2019-04-20T08:06:59.105Z,13.14
2019-04-20T08:08:10.503Z,12.88
2019-04-20T08:09:08.675Z,13.02
2019-04-20T08:10:00.396Z,12.88
2019-04-20T08:11:12.382Z,12.99
2019-04-20T08:12:14.241Z,13.31
2019-04-20T08:13:21.552Z,13.37
2019-04-20T08:14:19.295Z,13.70
2019-04-20T08:15:27.413Z,13.91
2019-04-20T08:16:14.582Z,13.68
2019-04-20T08:17:21.340Z,14.26
2019-04-20T08:18:08.915Z,13.98
2019-04-20T08:19:10.123Z,13.83
2019-04-20T08:20:10.793Z,14.06
2019-04-20T08:22:21.665Z,14.43
2019-04-20T08:23:12.889Z,14.05
2019-04-20T08:24:13.148Z,14.20
2019-04-20T08:25:12.543Z,14.26
2019-04-20T08:26:01.744Z,14.55
2019-04-20T08:26:59.993Z,14.39
2019-04-20T08:27:55.033Z,14.32
2019-04-20T08:29:00.196Z,14.32
2019-04-20T08:30:12.434Z,14.46
2019-04-20T08:31:13.128Z,14.12
2019-04-20T08:32:13.041Z,14.22
2019-04-20T08:33:09.440Z,14.25
2019-04-20T08:34:18.598Z,13.85
2019-04-20T08:35:05.572Z,13.83
2019-04-20T08:36:17.155Z,14.28
2019-04-20T08:37:08.443Z,14.51
2019-04-20T08:38:48.470Z,14.51
2019-04-20T08:40:13.265Z,14.85
2019-04-20T08:41:08.513Z,14.67
2019-04-20T08:42:05.954Z,14.89
2019-04-20T08:43:15.739Z,14.83
2019-04-20T08:44:39.693Z,14.92
2019-04-20T08:45:16.767Z,15.09
2019-04-20T08:47:21.670Z,15.29
2019-04-20T08:48:18.988Z,15.58
2019-04-20T08:49:22.003Z,15.65
2019-04-20T08:50:13.719Z,15.24
2019-04-20T08:51:07.311Z,15.14
2019-04-20T08:52:38.174Z,14.98
2019-04-20T08:53:20.253Z,15.18
2019-04-20T08:54:08.407Z,15.27
2019-04-20T08:55:13.119Z,15.01
2019-04-20T08:56:06.993Z,15.37
2019-04-20T08:56:58.058Z,15.04
2019-04-20T08:57:54.378Z,15.49
2019-04-20T08:58:54.980Z,15.18
2019-04-20T08:59:54.350Z,15.05
2019-04-20T09:00:58.766Z,14.76
2019-04-20T09:01:53.837Z,15.14
2019-04-20T09:02:58.634Z,15.04
2019-04-20T09:04:02.084Z,15.07
2019-04-20T09:05:01.023Z,15.43
2019-04-20T09:06:01.016Z,14.95
2019-04-20T09:07:05.543Z,15.59
2019-04-20T09:08:02.557Z,15.10
2019-04-20T09:09:17.338Z,15.82
2019-04-20T09:10:16.522Z,16.21
2019-04-20T09:11:09.924Z,16.22
2019-04-20T09:12:05.849Z,16.01
2019-04-20T09:13:06.035Z,15.82
2019-04-20T09:13:58.449Z,16.18
2019-04-20T09:14:53.521Z,16.19
2019-04-20T09:15:53.607Z,16.42
2019-04-20T09:16:59.817Z,15.95
2019-04-20T09:17:59.106Z,16.32
2019-04-20T09:18:59.895Z,16.66
2019-04-20T09:20:01.779Z,16.56
2019-04-20T09:21:01.531Z,16.26
2019-04-20T09:22:01.687Z,16.11
2019-04-20T09:23:13.512Z,16.20
2019-04-20T09:24:15.931Z,16.09
2019-04-20T09:25:19.354Z,16.14
2019-04-20T09:26:12.832Z,16.48
2019-04-20T09:28:07.199Z,16.79
2019-04-20T09:29:02.976Z,17.48
2019-04-20T09:30:08.916Z,17.16
2019-04-20T09:31:12.248Z,17.00
2019-04-20T09:32:11.163Z,17.28
2019-04-20T09:33:18.230Z,17.37
2019-04-20T09:34:11.460Z,17.49
2019-04-20T09:35:13.749Z,16.40
2019-04-20T09:36:09.467Z,17.05
2019-04-20T09:38:10.392Z,16.67
2019-04-20T09:39:04.622Z,16.95
2019-04-20T09:40:16.042Z,16.97
2019-04-20T09:41:09.154Z,16.90
2019-04-20T09:42:00.861Z,17.12
2019-04-20T09:42:54.243Z,16.68
2019-04-20T09:43:54.085Z,17.10
2019-04-20T09:44:57.546Z,17.61
2019-04-20T09:45:57.997Z,17.27
2019-04-20T09:46:56.933Z,17.56
2019-04-20T09:47:56.334Z,17.44
2019-04-20T09:48:57.390Z,17.12
2019-04-20T09:50:03.424Z,17.26
2019-04-20T09:51:12.866Z,17.09
2019-04-20T09:52:06.780Z,17.70
2019-04-20T09:53:08.766Z,17.21
2019-04-20T09:54:03.947Z,17.85
2019-04-20T09:55:06.851Z,17.40
2019-04-20T09:56:10.924Z,17.32
2019-04-20T09:57:11.824Z,17.53
2019-04-20T09:58:07.251Z,17.19
2019-04-20T09:59:12.405Z,17.10
2019-04-20T10:00:12.065Z,17.20
2019-04-20T10:01:08.406Z,17.14
2019-04-20T10:02:02.184Z,17.02
2019-04-20T10:02:54.681Z,17.03
2019-04-20T10:03:54.769Z,17.27
2019-04-20T10:04:53.792Z,17.29
2019-04-20T10:05:53.847Z,18.07
2019-04-20T10:06:55.126Z,18.19
2019-04-20T10:07:56.963Z,17.91
2019-04-20T10:08:56.799Z,17.98
2019-04-20T10:09:53.848Z,18.15
2019-04-20T10:10:54.318Z,18.50
2019-04-20T10:11:55.282Z,18.62
2019-04-20T10:12:54.207Z,18.22
2019-04-20T10:13:54.375Z,18.54
2019-04-20T10:14:57.636Z,17.84
2019-04-20T10:15:53.887Z,18.19
2019-04-20T10:16:53.849Z,18.62
2019-04-20T10:17:54.190Z,18.60
2019-04-20T10:18:54.955Z,18.57
2019-04-20T10:19:55.582Z,19.12
2019-04-20T10:20:53.834Z,19.44
2019-04-20T10:21:54.847Z,19.07
2019-04-20T10:22:54.388Z,18.64
2019-04-20T10:23:54.584Z,19.00
2019-04-20T10:24:55.464Z,18.57
2019-04-20T10:25:54.338Z,18.49
2019-04-20T10:26:54.583Z,18.88
2019-04-20T10:27:54.159Z,19.52
2019-04-20T10:28:53.746Z,19.61
2019-04-20T10:29:53.727Z,19.60
2019-04-20T10:30:54.629Z,19.79
2019-04-20T10:31:57.192Z,19.78
2019-04-20T10:32:55.413Z,19.33
2019-04-20T10:33:53.999Z,19.61
2019-04-20T10:34:54.859Z,19.26
2019-04-20T10:35:53.912Z,19.74
2019-04-20T10:36:53.807Z,19.87
2019-04-20T10:37:53.922Z,19.66
2019-04-20T10:38:54.771Z,19.57
2019-04-20T10:39:54.419Z,20.08
2019-04-20T10:40:57.267Z,19.89
2019-04-20T10:41:58.708Z,19.87
2019-04-20T10:42:55.104Z,19.80
2019-04-20T10:43:53.847Z,19.70
2019-04-20T10:44:56.750Z,19.66
2019-04-20T10:45:55.046Z,19.38
2019-04-20T10:46:53.778Z,19.63
2019-04-20T10:47:55.014Z,20.08
2019-04-20T10:48:56.110Z,20.16
2019-04-20T10:49:53.291Z,20.35
2019-04-20T10:50:54.818Z,19.72
2019-04-20T10:51:53.605Z,19.61
2019-04-20T10:52:54.099Z,19.11
2019-04-20T10:53:54.237Z,19.70
2019-04-20T10:54:54.380Z,19.75
2019-04-20T10:55:53.854Z,19.76
2019-04-20T10:56:55.314Z,20.07
2019-04-20T10:57:53.422Z,20.06
2019-04-20T10:58:53.969Z,20.02
2019-04-20T10:59:55.271Z,20.16
2019-04-20T11:00:53.547Z,20.02
2019-04-20T11:01:53.916Z,20.39
2019-04-20T11:02:55.401Z,20.04
2019-04-20T11:03:54.494Z,20.48
2019-04-20T11:04:54.825Z,20.11
2019-04-20T11:05:53.918Z,20.29
2019-04-20T11:06:54.550Z,19.76
2019-04-20T11:07:54.663Z,20.62
2019-04-20T11:08:54.048Z,20.59
2019-04-20T11:10:04.426Z,20.59
2019-04-20T11:11:04.033Z,20.40
2019-04-20T11:11:54.725Z,20.70
2019-04-20T11:12:53.971Z,20.51
2019-04-20T11:14:00.799Z,20.31
2019-04-20T11:14:54.465Z,20.12
2019-04-20T11:15:54.688Z,20.53
2019-04-20T11:16:54.244Z,20.03
2019-04-20T11:17:53.825Z,19.48
2019-04-20T11:18:55.479Z,20.22
2019-04-20T11:19:54.920Z,19.20
2019-04-20T11:20:55.206Z,19.56
2019-04-20T11:21:54.414Z,20.33
2019-04-20T11:22:53.213Z,20.32
2019-04-20T11:23:54.233Z,20.55
2019-04-20T11:24:54.306Z,20.24
2019-04-20T11:25:53.862Z,20.87
2019-04-20T11:26:54.097Z,20.94
2019-04-20T11:27:54.389Z,21.01
2019-04-20T11:28:53.774Z,20.68
2019-04-20T11:29:54.107Z,20.40
2019-04-20T11:30:54.246Z,20.38
2019-04-20T11:31:55.674Z,19.99
2019-04-20T11:32:54.036Z,20.35
2019-04-20T11:33:54.426Z,20.25
2019-04-20T11:34:56.347Z,20.13
2019-04-20T11:35:54.976Z,20.00
2019-04-20T11:36:55.061Z,19.78
2019-04-20T11:37:55.343Z,19.46
2019-04-20T11:38:54.416Z,19.79
2019-04-20T11:39:54.835Z,19.44
2019-04-20T11:41:04.115Z,19.22
2019-04-20T11:41:54.033Z,19.70
2019-04-20T11:42:55.296Z,19.24
2019-04-20T11:43:54.099Z,19.20
2019-04-20T11:44:54.922Z,19.00
2019-04-20T11:45:54.503Z,19.86
2019-04-20T11:46:54.537Z,19.72
2019-04-20T11:47:53.706Z,19.96
2019-04-20T11:48:55.309Z,19.75
2019-04-20T11:49:55.440Z,19.87
2019-04-20T11:50:53.937Z,19.82
2019-04-20T11:51:55.224Z,19.42
2019-04-20T11:52:55.282Z,19.31
2019-04-20T11:53:54.397Z,19.35
2019-04-20T11:54:54.657Z,19.23
2019-04-20T11:55:54.365Z,18.92
2019-04-20T11:56:55.356Z,18.55
2019-04-20T11:57:54.219Z,18.83
2019-04-20T11:58:53.998Z,19.24
2019-04-20T11:59:55.008Z,19.27
2019-04-20T12:01:02.964Z,19.17
2019-04-20T12:01:57.485Z,19.22
2019-04-20T12:02:56.901Z,19.43
2019-04-20T12:04:01.253Z,19.69
2019-04-20T12:05:08.864Z,20.15
2019-04-20T12:05:57.818Z,19.20
2019-04-20T12:06:54.934Z,19.88
2019-04-20T12:07:55.287Z,20.12
2019-04-20T12:08:54.922Z,19.64
2019-04-20T12:09:58.485Z,19.87
2019-04-20T12:10:57.941Z,19.15
2019-04-20T12:12:04.117Z,19.21
2019-04-20T12:12:55.515Z,19.08
2019-04-20T12:13:54.525Z,19.15
2019-04-20T12:14:54.809Z,19.14
2019-04-20T12:15:54.021Z,19.45
2019-04-20T12:16:55.408Z,19.54
2019-04-20T12:17:54.032Z,19.90
2019-04-20T12:18:54.664Z,20.32
2019-04-20T12:19:54.046Z,20.62
2019-04-20T12:20:54.839Z,21.07
2019-04-20T12:21:54.042Z,21.23
2019-04-20T12:22:54.610Z,20.87
2019-04-20T12:23:54.131Z,21.09
2019-04-20T12:24:54.168Z,20.65
2019-04-20T12:25:54.430Z,21.01
2019-04-20T12:26:54.605Z,21.20
2019-04-20T12:27:58.338Z,21.02
2019-04-20T12:28:54.011Z,21.14
2019-04-20T12:29:54.086Z,20.77
2019-04-20T12:30:56.007Z,20.44
2019-04-20T12:31:58.163Z,20.42
2019-04-20T12:32:58.540Z,20.61
2019-04-20T12:33:54.774Z,20.35
2019-04-20T12:34:54.130Z,20.71
2019-04-20T12:35:54.192Z,20.49
2019-04-20T12:36:55.173Z,19.54
2019-04-20T12:37:54.691Z,20.28
2019-04-20T12:38:55.014Z,20.26
2019-04-20T12:39:55.237Z,19.39
2019-04-20T12:40:54.200Z,19.68
2019-04-20T12:41:58.181Z,19.03
2019-04-20T12:42:55.030Z,18.39
2019-04-20T12:43:54.124Z,19.09
2019-04-20T12:44:53.475Z,19.07
2019-04-20T12:45:54.030Z,19.21
2019-04-20T12:46:54.258Z,19.63
2019-04-20T12:47:55.470Z,19.91
2019-04-20T12:48:55.586Z,20.20
2019-04-20T12:49:54.162Z,20.31
2019-04-20T12:50:55.332Z,20.47
2019-04-20T12:51:59.252Z,20.41
2019-04-20T12:52:54.751Z,20.54
2019-04-20T12:53:54.090Z,20.72
2019-04-20T12:54:54.554Z,20.34
2019-04-20T12:55:54.774Z,20.53
2019-04-20T12:56:54.257Z,20.53
2019-04-20T12:57:54.533Z,20.80
2019-04-20T12:58:55.802Z,20.54
2019-04-20T12:59:54.232Z,20.89
2019-04-20T13:00:54.423Z,20.56
2019-04-20T13:01:53.740Z,20.54
2019-04-20T13:02:55.599Z,20.29
2019-04-20T13:03:53.717Z,20.15
2019-04-20T13:04:55.263Z,20.01
2019-04-20T13:05:54.383Z,19.92
2019-04-20T13:06:55.308Z,19.89
2019-04-20T13:07:57.868Z,19.95
2019-04-20T13:08:57.477Z,19.58
2019-04-20T13:09:54.792Z,19.52
2019-04-20T13:10:54.884Z,19.61
2019-04-20T13:11:59.470Z,19.98
2019-04-20T13:12:54.447Z,20.12
2019-04-20T13:13:54.527Z,20.47
2019-04-20T13:14:55.897Z,19.91
2019-04-20T13:15:54.413Z,20.59
2019-04-20T13:16:55.270Z,20.20
2019-04-20T13:17:54.375Z,20.17
2019-04-20T13:18:55.276Z,20.45
2019-04-20T13:19:55.320Z,21.10
2019-04-20T13:20:57.865Z,20.93
2019-04-20T13:21:54.796Z,20.67
2019-04-20T13:22:55.026Z,21.17
2019-04-20T13:23:55.349Z,21.14
2019-04-20T13:24:54.960Z,21.04
2019-04-20T13:25:54.933Z,20.73
2019-04-20T13:26:55.217Z,20.62
2019-04-20T13:27:54.760Z,20.79
2019-04-20T13:28:55.124Z,20.78
2019-04-20T13:29:54.688Z,21.06
2019-04-20T13:30:53.709Z,20.88
2019-04-20T13:31:56.260Z,21.08
2019-04-20T13:32:54.032Z,21.23
2019-04-20T13:33:54.891Z,21.34
2019-04-20T13:34:54.184Z,21.28
2019-04-20T13:35:54.698Z,21.34
2019-04-20T13:36:54.196Z,21.45
2019-04-20T13:37:54.216Z,21.15
2019-04-20T13:38:54.378Z,21.32
2019-04-20T13:39:54.109Z,20.73
2019-04-20T13:40:54.121Z,20.80
2019-04-20T13:42:03.509Z,20.27
2019-04-20T13:42:54.067Z,20.18
2019-04-20T13:43:56.103Z,20.15
2019-04-20T13:44:54.930Z,20.28